PWSweather.com
Personal Weather Stations
Station Observations
WESTON01
WestonSuperMareGB BS22 8RT

WestonSuperMareGB BS22 8RT

Lat: 51.351508, Lon: -2.933373

Elevation: 15

Station Type: Fine Offset WH1080

http://www.westonweather.co.uk

High Low Average
Temperature 58.5°F14.7°C 50.5°F10.3°C 54.4°F12.4°C
Dew Point 52.5°F11.4°C 42.2°F5.7°C 47.5°F8.6°C
Winds 10.9 mph 17.5 kmh Calm Calm 6.0 mph ENE9.7 kmh ENE
Wind Gusts 17.0 mph27.4 kmh -- 9.0 mph14.5 kmh
Humidity 92% 56% 78%
Pressure 30.18 in1022.0 mb 30.09 in1019.0 mb -
Precipitation 0.08 in2.0 mm - -
Hour Temp Dew Point Humidity Winds Wind Gusts Pressure Precip Precip Rate Daily Precip Total
12:00 AM 58.5°F14.7°C 42.9°F6.1°C 56% 5.8 mph NE9.3 kmh NE 8.0 mph12.9 kmh 30.18 in1022.0 mb 0.00 in0.0 mm 0.00 in0.0 mm 0.00 in0.0 mm
12:05 AM 58.4°F14.7°C 42.7°F5.9°C 56% 6.7 mph ENE10.8 kmh ENE 8.6 mph13.8 kmh 30.18 in1022.0 mb 0.00 in0.0 mm 0.00 in0.0 mm 0.00 in0.0 mm
12:10 AM 58.4°F14.7°C 42.7°F5.9°C 56% 6.4 mph E10.3 kmh E 8.6 mph13.8 kmh 30.18 in1022.0 mb 0.00 in0.0 mm 0.00 in0.0 mm 0.00 in0.0 mm
12:15 AM 58.2°F14.6°C 42.6°F5.9°C 56% 5.2 mph E8.4 kmh E 8.6 mph13.8 kmh 30.18 in1022.0 mb 0.00 in0.0 mm 0.00 in0.0 mm 0.00 in0.0 mm
12:20 AM 58.0°F14.4°C 42.4°F5.8°C 56% 5.1 mph E8.2 kmh E 9.2 mph14.8 kmh 30.18 in1022.0 mb 0.00 in0.0 mm 0.00 in0.0 mm 0.00 in0.0 mm
12:25 AM 57.8°F14.3°C 42.2°F5.7°C 56% 5.9 mph E9.5 kmh E 9.2 mph14.8 kmh 30.18 in1022.0 mb 0.00 in0.0 mm 0.00 in0.0 mm 0.00 in0.0 mm
12:30 AM 57.7°F14.3°C 42.5°F5.8°C 57% 5.2 mph E8.4 kmh E 7.7 mph12.4 kmh 30.18 in1022.0 mb 0.00 in0.0 mm 0.00 in0.0 mm 0.00 in0.0 mm
12:35 AM 57.5°F14.2°C 42.3°F5.7°C 57% 4.9 mph ENE7.9 kmh ENE 6.2 mph10.0 kmh 30.18 in1022.0 mb 0.00 in0.0 mm 0.00 in0.0 mm 0.00 in0.0 mm
12:40 AM 57.3°F14.1°C 42.6°F5.9°C 58% 5.8 mph ENE9.3 kmh ENE 7.4 mph11.9 kmh 30.18 in1022.0 mb 0.00 in0.0 mm 0.00 in0.0 mm 0.00 in0.0 mm
12:45 AM 57.1°F13.9°C 42.5°F5.8°C 58% 6.6 mph NE10.6 kmh NE 8.0 mph12.9 kmh 30.18 in1022.0 mb 0.00 in0.0 mm 0.00 in0.0 mm 0.00 in0.0 mm
12:50 AM 57.1°F13.9°C 42.5°F5.8°C 58% 7.4 mph NE11.9 kmh NE 12.8 mph20.6 kmh 30.18 in1022.0 mb 0.00 in0.0 mm 0.00 in0.0 mm 0.00 in0.0 mm
12:55 AM 56.8°F13.8°C 42.6°F5.9°C 59% 10.0 mph ENE16.1 kmh ENE 16.1 mph25.9 kmh 30.18 in1022.0 mb 0.00 in0.0 mm 0.00 in0.0 mm 0.00 in0.0 mm
01:00 AM 56.8°F13.8°C 42.6°F5.9°C 59% 9.9 mph ENE15.9 kmh ENE 16.1 mph25.9 kmh 30.18 in1022.0 mb 0.00 in0.0 mm 0.00 in0.0 mm 0.00 in0.0 mm
01:05 AM 56.6°F13.7°C 42.4°F5.8°C 59% 8.4 mph ENE13.5 kmh ENE 16.1 mph25.9 kmh 30.18 in1022.0 mb 0.00 in0.0 mm 0.00 in0.0 mm 0.00 in0.0 mm
01:10 AM 56.4°F13.6°C 42.2°F5.7°C 59% 8.1 mph ENE13.0 kmh ENE 13.1 mph21.1 kmh 30.18 in1022.0 mb 0.00 in0.0 mm 0.00 in0.0 mm 0.00 in0.0 mm
01:15 AM 56.2°F13.4°C 42.5°F5.8°C 60% 8.1 mph E13.0 kmh E 12.2 mph19.6 kmh 30.18 in1022.0 mb 0.00 in0.0 mm 0.00 in0.0 mm 0.00 in0.0 mm
01:20 AM 56.0°F13.3°C 42.3°F5.7°C 60% 9.5 mph ENE15.3 kmh ENE 17.0 mph27.4 kmh 30.18 in1022.0 mb 0.00 in0.0 mm 0.00 in0.0 mm 0.00 in0.0 mm
01:25 AM 56.0°F13.3°C 42.3°F5.7°C 60% 10.5 mph NE16.9 kmh NE 17.0 mph27.4 kmh 30.18 in1022.0 mb 0.00 in0.0 mm 0.00 in0.0 mm 0.00 in0.0 mm
01:30 AM 56.0°F13.3°C 42.3°F5.7°C 60% 9.4 mph ENE15.1 kmh ENE 14.6 mph23.5 kmh 30.18 in1022.0 mb 0.00 in0.0 mm 0.00 in0.0 mm 0.00 in0.0 mm
01:35 AM 55.8°F13.2°C 42.6°F5.9°C 61% 9.1 mph NE14.6 kmh NE 14.6 mph23.5 kmh 30.18 in1022.0 mb 0.00 in0.0 mm 0.00 in0.0 mm 0.00 in0.0 mm
01:40 AM 55.7°F13.2°C 42.4°F5.8°C 61% 8.6 mph ENE13.8 kmh ENE 13.7 mph22.0 kmh 30.18 in1022.0 mb 0.00 in0.0 mm 0.00 in0.0 mm 0.00 in0.0 mm
01:45 AM 55.7°F13.2°C 42.8°F6.0°C 62% 7.6 mph ENE12.2 kmh ENE 10.1 mph16.3 kmh 30.18 in1022.0 mb 0.00 in0.0 mm 0.00 in0.0 mm 0.00 in0.0 mm
01:50 AM 55.7°F13.2°C 42.8°F6.0°C 62% 6.4 mph ENE10.3 kmh ENE 8.9 mph14.3 kmh 30.18 in1022.0 mb 0.00 in0.0 mm 0.00 in0.0 mm 0.00 in0.0 mm
01:55 AM 55.5°F13.1°C 43.1°F6.2°C 63% 5.4 mph ENE8.7 kmh ENE 9.8 mph15.8 kmh 30.18 in1022.0 mb 0.00 in0.0 mm 0.00 in0.0 mm 0.00 in0.0 mm
02:00 AM 55.3°F12.9°C 42.9°F6.1°C 63% 6.0 mph NE9.7 kmh NE 9.8 mph15.8 kmh 30.18 in1022.0 mb 0.00 in0.0 mm 0.00 in0.0 mm 0.00 in0.0 mm
02:05 AM 55.1°F12.8°C 42.8°F6.0°C 63% 6.2 mph NE10.0 kmh NE 8.6 mph13.8 kmh 30.18 in1022.0 mb 0.00 in0.0 mm 0.00 in0.0 mm 0.00 in0.0 mm
02:10 AM 55.0°F12.8°C 43.0°F6.1°C 64% 7.4 mph ENE11.9 kmh ENE 13.1 mph21.1 kmh 30.18 in1022.0 mb 0.00 in0.0 mm 0.00 in0.0 mm 0.00 in0.0 mm
02:15 AM 54.8°F12.7°C 42.8°F6.0°C 64% 7.0 mph ENE11.3 kmh ENE 13.1 mph21.1 kmh 30.18 in1022.0 mb 0.00 in0.0 mm 0.00 in0.0 mm 0.00 in0.0 mm
02:20 AM 54.8°F12.7°C 42.8°F6.0°C 64% 6.5 mph NE10.5 kmh NE 9.5 mph15.3 kmh 30.18 in1022.0 mb 0.00 in0.0 mm 0.00 in0.0 mm 0.00 in0.0 mm
02:25 AM 54.6°F12.6°C 42.7°F5.9°C 64% 7.4 mph ENE11.9 kmh ENE 11.6 mph18.7 kmh 30.18 in1022.0 mb 0.00 in0.0 mm 0.00 in0.0 mm 0.00 in0.0 mm
02:30 AM 54.4°F12.4°C 42.9°F6.1°C 65% 7.4 mph E11.9 kmh E 11.6 mph18.7 kmh 30.18 in1022.0 mb 0.00 in0.0 mm 0.00 in0.0 mm 0.00 in0.0 mm
02:35 AM 54.2°F12.3°C 43.1°F6.2°C 66% 5.1 mph E8.2 kmh E 10.1 mph16.3 kmh 30.18 in1022.0 mb 0.00 in0.0 mm 0.00 in0.0 mm 0.00 in0.0 mm
02:40 AM 54.0°F12.2°C 43.3°F6.3°C 67% 4.6 mph ENE7.4 kmh ENE 6.5 mph10.5 kmh 30.18 in1022.0 mb 0.00 in0.0 mm 0.00 in0.0 mm 0.00 in0.0 mm
02:45 AM 53.9°F12.2°C 43.5°F6.4°C 68% 4.0 mph ENE6.4 kmh ENE 6.5 mph10.5 kmh 30.18 in1022.0 mb 0.00 in0.0 mm 0.00 in0.0 mm 0.00 in0.0 mm
02:50 AM 53.7°F12.1°C 43.8°F6.6°C 69% 3.6 mph NE5.8 kmh NE 4.5 mph7.2 kmh 30.18 in1022.0 mb 0.00 in0.0 mm 0.00 in0.0 mm 0.00 in0.0 mm
02:55 AM 53.3°F11.8°C 43.4°F6.3°C 69% 4.7 mph NE7.6 kmh NE 8.0 mph12.9 kmh 30.18 in1022.0 mb 0.00 in0.0 mm 0.00 in0.0 mm 0.00 in0.0 mm
03:00 AM 53.2°F11.8°C 43.2°F6.2°C 69% 7.3 mph ENE11.7 kmh ENE 11.6 mph18.7 kmh 30.18 in1022.0 mb 0.00 in0.0 mm 0.00 in0.0 mm 0.00 in0.0 mm
03:05 AM 52.8°F11.6°C 42.9°F6.1°C 69% 7.3 mph ENE11.7 kmh ENE 11.6 mph18.7 kmh 30.18 in1022.0 mb 0.00 in0.0 mm 0.00 in0.0 mm 0.00 in0.0 mm
03:10 AM 52.6°F11.4°C 43.1°F6.2°C 70% 5.6 mph NE9.0 kmh NE 8.3 mph13.4 kmh 30.18 in1022.0 mb 0.00 in0.0 mm 0.00 in0.0 mm 0.00 in0.0 mm
03:15 AM 52.3°F11.3°C 43.1°F6.2°C 71% 5.2 mph NE8.4 kmh NE 7.1 mph11.4 kmh 30.18 in1022.0 mb 0.00 in0.0 mm 0.00 in0.0 mm 0.00 in0.0 mm
03:20 AM 52.3°F11.3°C 43.1°F6.2°C 71% 5.0 mph NE8.0 kmh NE 8.3 mph13.4 kmh 30.18 in1022.0 mb 0.00 in0.0 mm 0.00 in0.0 mm 0.00 in0.0 mm
03:25 AM 51.9°F11.1°C 42.8°F6.0°C 71% 6.3 mph NNE10.1 kmh NNE 10.1 mph16.3 kmh 30.18 in1022.0 mb 0.00 in0.0 mm 0.00 in0.0 mm 0.00 in0.0 mm
03:30 AM 51.7°F10.9°C 42.6°F5.9°C 71% 7.3 mph NNE11.7 kmh NNE 10.1 mph16.3 kmh 30.18 in1022.0 mb 0.00 in0.0 mm 0.00 in0.0 mm 0.00 in0.0 mm
03:35 AM 51.5°F10.8°C 42.4°F5.8°C 71% 8.2 mph NE13.2 kmh NE 11.3 mph18.2 kmh 30.18 in1022.0 mb 0.00 in0.0 mm 0.00 in0.0 mm 0.00 in0.0 mm
03:40 AM 51.3°F10.7°C 42.3°F5.7°C 71% 8.2 mph ENE13.2 kmh ENE 11.3 mph18.2 kmh 30.18 in1022.0 mb 0.00 in0.0 mm 0.00 in0.0 mm 0.00 in0.0 mm
03:45 AM 51.2°F10.7°C 42.5°F5.8°C 72% 7.8 mph NE12.6 kmh NE 13.7 mph22.0 kmh 30.15 in1021.0 mb 0.00 in0.0 mm 0.00 in0.0 mm 0.00 in0.0 mm
03:50 AM 51.0°F10.6°C 42.6°F5.9°C 73% 7.8 mph NE12.6 kmh NE 13.7 mph22.0 kmh 30.15 in1021.0 mb 0.00 in0.0 mm 0.00 in0.0 mm 0.00 in0.0 mm
03:55 AM 51.0°F10.6°C 42.3°F5.7°C 72% 8.2 mph NE13.2 kmh NE 13.7 mph22.0 kmh 30.15 in1021.0 mb 0.00 in0.0 mm 0.00 in0.0 mm 0.00 in0.0 mm
04:00 AM 50.8°F10.4°C 42.5°F5.8°C 73% 9.4 mph E15.1 kmh E 14.9 mph24.0 kmh 30.15 in1021.0 mb 0.00 in0.0 mm 0.00 in0.0 mm 0.00 in0.0 mm
04:05 AM 50.8°F10.4°C 42.5°F5.8°C 73% 9.7 mph E15.6 kmh E 14.9 mph24.0 kmh 30.15 in1021.0 mb 0.00 in0.0 mm 0.00 in0.0 mm 0.00 in0.0 mm
04:10 AM 50.6°F10.3°C 42.3°F5.7°C 73% 7.5 mph ENE12.1 kmh ENE 11.3 mph18.2 kmh 30.15 in1021.0 mb 0.00 in0.0 mm 0.00 in0.0 mm 0.00 in0.0 mm
04:15 AM 50.6°F10.3°C 42.3°F5.7°C 73% 7.4 mph NE11.9 kmh NE 11.3 mph18.2 kmh 30.15 in1021.0 mb 0.00 in0.0 mm 0.00 in0.0 mm 0.00 in0.0 mm
04:20 AM 50.5°F10.3°C 42.5°F5.8°C 74% 9.2 mph ENE14.8 kmh ENE 16.7 mph26.9 kmh 30.15 in1021.0 mb 0.00 in0.0 mm 0.00 in0.0 mm 0.00 in0.0 mm
04:25 AM 50.5°F10.3°C 42.5°F5.8°C 74% 8.6 mph E13.8 kmh E 16.7 mph26.9 kmh 30.15 in1021.0 mb 0.00 in0.0 mm 0.00 in0.0 mm 0.00 in0.0 mm
04:40 AM 50.5°F10.3°C 42.5°F5.8°C 74% 7.2 mph ENE11.6 kmh ENE 10.7 mph17.2 kmh 30.15 in1021.0 mb 0.00 in0.0 mm 0.00 in0.0 mm 0.00 in0.0 mm
04:45 AM 50.5°F10.3°C 42.5°F5.8°C 74% 8.5 mph E13.7 kmh E 12.8 mph20.6 kmh 30.15 in1021.0 mb 0.00 in0.0 mm 0.00 in0.0 mm 0.00 in0.0 mm
04:50 AM 50.5°F10.3°C 42.8°F6.0°C 75% 8.7 mph E14.0 kmh E 12.8 mph20.6 kmh 30.15 in1021.0 mb 0.00 in0.0 mm 0.00 in0.0 mm 0.00 in0.0 mm
04:55 AM 50.5°F10.3°C 42.8°F6.0°C 75% 8.6 mph ENE13.8 kmh ENE 14.0 mph22.5 kmh 30.15 in1021.0 mb 0.00 in0.0 mm 0.00 in0.0 mm 0.00 in0.0 mm
05:00 AM 50.5°F10.3°C 42.8°F6.0°C 75% 8.6 mph NE13.8 kmh NE 14.0 mph22.5 kmh 30.18 in1022.0 mb 0.00 in0.0 mm 0.00 in0.0 mm 0.00 in0.0 mm
05:05 AM 50.5°F10.3°C 42.8°F6.0°C 75% 7.7 mph NE12.4 kmh NE 12.5 mph20.1 kmh 30.18 in1022.0 mb 0.00 in0.0 mm 0.00 in0.0 mm 0.00 in0.0 mm
05:10 AM 50.5°F10.3°C 43.2°F6.2°C 76% 6.6 mph NE10.6 kmh NE 8.3 mph13.4 kmh 30.18 in1022.0 mb 0.00 in0.0 mm 0.00 in0.0 mm 0.00 in0.0 mm
05:15 AM 50.5°F10.3°C 43.2°F6.2°C 76% 8.0 mph NE12.9 kmh NE 11.3 mph18.2 kmh 30.18 in1022.0 mb 0.00 in0.0 mm 0.00 in0.0 mm 0.00 in0.0 mm
05:20 AM 50.5°F10.3°C 43.2°F6.2°C 76% 8.4 mph NE13.5 kmh NE 11.3 mph18.2 kmh 30.18 in1022.0 mb 0.00 in0.0 mm 0.00 in0.0 mm 0.00 in0.0 mm
05:25 AM 50.5°F10.3°C 43.2°F6.2°C 76% 7.2 mph NE11.6 kmh NE 11.3 mph18.2 kmh 30.18 in1022.0 mb 0.00 in0.0 mm 0.00 in0.0 mm 0.00 in0.0 mm
05:30 AM 50.5°F10.3°C 43.2°F6.2°C 76% 7.0 mph NE11.3 kmh NE 11.3 mph18.2 kmh 30.18 in1022.0 mb 0.00 in0.0 mm 0.00 in0.0 mm 0.00 in0.0 mm
05:35 AM 50.5°F10.3°C 43.2°F6.2°C 76% 7.3 mph NE11.7 kmh NE 10.7 mph17.2 kmh 30.18 in1022.0 mb 0.00 in0.0 mm 0.00 in0.0 mm 0.00 in0.0 mm
05:40 AM 50.5°F10.3°C 43.2°F6.2°C 76% 7.5 mph NE12.1 kmh NE 10.7 mph17.2 kmh 30.18 in1022.0 mb 0.00 in0.0 mm 0.00 in0.0 mm 0.00 in0.0 mm
05:45 AM 50.6°F10.3°C 43.3°F6.3°C 76% 7.8 mph NE12.6 kmh NE 11.3 mph18.2 kmh 30.15 in1021.0 mb 0.00 in0.0 mm 0.00 in0.0 mm 0.00 in0.0 mm
05:50 AM 50.6°F10.3°C 43.3°F6.3°C 76% 8.1 mph NE13.0 kmh NE 11.3 mph18.2 kmh 30.15 in1021.0 mb 0.00 in0.0 mm 0.00 in0.0 mm 0.00 in0.0 mm
05:55 AM 50.6°F10.3°C 43.3°F6.3°C 76% 7.3 mph NE11.7 kmh NE 9.8 mph15.8 kmh 30.15 in1021.0 mb 0.00 in0.0 mm 0.00 in0.0 mm 0.00 in0.0 mm
06:00 AM 50.6°F10.3°C 43.7°F6.5°C 77% 7.5 mph ENE12.1 kmh ENE 9.8 mph15.8 kmh 30.18 in1022.0 mb 0.00 in0.0 mm 0.00 in0.0 mm 0.00 in0.0 mm
06:05 AM 50.6°F10.3°C 43.7°F6.5°C 77% 8.5 mph E13.7 kmh E 12.5 mph20.1 kmh 30.18 in1022.0 mb 0.00 in0.0 mm 0.00 in0.0 mm 0.00 in0.0 mm
06:10 AM 50.6°F10.3°C 43.7°F6.5°C 77% 7.8 mph E12.6 kmh E 12.5 mph20.1 kmh 30.18 in1022.0 mb 0.00 in0.0 mm 0.00 in0.0 mm 0.00 in0.0 mm
06:15 AM 50.6°F10.3°C 43.7°F6.5°C 77% 7.5 mph ENE12.1 kmh ENE 13.1 mph21.1 kmh 30.15 in1021.0 mb 0.00 in0.0 mm 0.00 in0.0 mm 0.00 in0.0 mm
06:20 AM 50.6°F10.3°C 43.7°F6.5°C 77% 7.5 mph NE12.1 kmh NE 13.1 mph21.1 kmh 30.15 in1021.0 mb 0.00 in0.0 mm 0.00 in0.0 mm 0.00 in0.0 mm
06:25 AM 50.6°F10.3°C 43.7°F6.5°C 77% 8.8 mph NE14.2 kmh NE 16.4 mph26.4 kmh 30.15 in1021.0 mb 0.00 in0.0 mm 0.00 in0.0 mm 0.00 in0.0 mm
06:30 AM 50.6°F10.3°C 43.7°F6.5°C 77% 10.3 mph ENE16.6 kmh ENE 16.4 mph26.4 kmh 30.15 in1021.0 mb 0.00 in0.0 mm 0.00 in0.0 mm 0.00 in0.0 mm
06:35 AM 50.6°F10.3°C 43.7°F6.5°C 77% 9.9 mph ENE15.9 kmh ENE 14.6 mph23.5 kmh 30.15 in1021.0 mb 0.00 in0.0 mm 0.00 in0.0 mm 0.00 in0.0 mm
06:40 AM 50.6°F10.3°C 43.7°F6.5°C 77% 10.1 mph ENE16.3 kmh ENE 11.6 mph18.7 kmh 30.15 in1021.0 mb 0.00 in0.0 mm 0.00 in0.0 mm 0.00 in0.0 mm
06:45 AM 50.8°F10.4°C 43.9°F6.6°C 77% 9.6 mph NE15.4 kmh NE 11.6 mph18.7 kmh 30.18 in1022.0 mb 0.00 in0.0 mm 0.00 in0.0 mm 0.00 in0.0 mm
06:50 AM 50.8°F10.4°C 43.9°F6.6°C 77% 8.8 mph ENE14.2 kmh ENE 13.7 mph22.0 kmh 30.18 in1022.0 mb 0.00 in0.0 mm 0.00 in0.0 mm 0.00 in0.0 mm
06:55 AM 50.8°F10.4°C 43.5°F6.4°C 76% 8.7 mph ENE14.0 kmh ENE 13.7 mph22.0 kmh 30.18 in1022.0 mb 0.00 in0.0 mm 0.00 in0.0 mm 0.00 in0.0 mm
07:00 AM 50.8°F10.4°C 43.9°F6.6°C 77% 7.7 mph NE12.4 kmh NE 11.3 mph18.2 kmh 30.15 in1021.0 mb 0.00 in0.0 mm 0.00 in0.0 mm 0.00 in0.0 mm
07:05 AM 51.0°F10.6°C 44.0°F6.7°C 77% 8.1 mph NE13.0 kmh NE 13.7 mph22.0 kmh 30.15 in1021.0 mb 0.00 in0.0 mm 0.00 in0.0 mm 0.00 in0.0 mm
07:10 AM 51.0°F10.6°C 44.0°F6.7°C 77% 9.0 mph NE14.5 kmh NE 13.7 mph22.0 kmh 30.15 in1021.0 mb 0.00 in0.0 mm 0.00 in0.0 mm 0.00 in0.0 mm
07:15 AM 51.2°F10.7°C 44.5°F6.9°C 78% 8.6 mph NE13.8 kmh NE 13.7 mph22.0 kmh 30.18 in1022.0 mb 0.00 in0.0 mm 0.00 in0.0 mm 0.00 in0.0 mm
07:20 AM 51.2°F10.7°C 44.5°F6.9°C 78% 6.9 mph ENE11.1 kmh ENE 9.5 mph15.3 kmh 30.18 in1022.0 mb 0.00 in0.0 mm 0.00 in0.0 mm 0.00 in0.0 mm
07:25 AM 51.3°F10.7°C 44.7°F7.1°C 78% 6.9 mph ENE11.1 kmh ENE 10.1 mph16.3 kmh 30.18 in1022.0 mb 0.00 in0.0 mm 0.00 in0.0 mm 0.00 in0.0 mm
07:30 AM 51.3°F10.7°C 44.7°F7.1°C 78% 7.0 mph NE11.3 kmh NE 10.1 mph16.3 kmh 30.18 in1022.0 mb 0.00 in0.0 mm 0.00 in0.0 mm 0.00 in0.0 mm
07:35 AM 51.3°F10.7°C 44.7°F7.1°C 78% 8.7 mph NE14.0 kmh NE 13.4 mph21.6 kmh 30.18 in1022.0 mb 0.00 in0.0 mm 0.00 in0.0 mm 0.00 in0.0 mm
07:40 AM 51.5°F10.8°C 44.9°F7.2°C 78% 9.3 mph NE15.0 kmh NE 13.4 mph21.6 kmh 30.18 in1022.0 mb 0.00 in0.0 mm 0.00 in0.0 mm 0.00 in0.0 mm
07:45 AM 51.5°F10.8°C 44.9°F7.2°C 78% 7.4 mph NE11.9 kmh NE 10.1 mph16.3 kmh 30.18 in1022.0 mb 0.00 in0.0 mm 0.00 in0.0 mm 0.00 in0.0 mm
07:50 AM 51.7°F10.9°C 45.1°F7.3°C 78% 7.4 mph NE11.9 kmh NE 10.7 mph17.2 kmh 30.18 in1022.0 mb 0.00 in0.0 mm 0.00 in0.0 mm 0.00 in0.0 mm
07:55 AM 51.9°F11.1°C 45.2°F7.3°C 78% 7.9 mph NE12.7 kmh NE 11.3 mph18.2 kmh 30.18 in1022.0 mb 0.00 in0.0 mm 0.00 in0.0 mm 0.00 in0.0 mm
08:00 AM 51.9°F11.1°C 45.2°F7.3°C 78% 8.2 mph ENE13.2 kmh ENE 12.8 mph20.6 kmh 30.15 in1021.0 mb 0.00 in0.0 mm 0.00 in0.0 mm 0.00 in0.0 mm
08:05 AM 52.1°F11.2°C 45.4°F7.4°C 78% 6.6 mph ENE10.6 kmh ENE 12.8 mph20.6 kmh 30.15 in1021.0 mb 0.00 in0.0 mm 0.00 in0.0 mm 0.00 in0.0 mm
08:10 AM 52.1°F11.2°C 45.4°F7.4°C 78% 8.3 mph ENE13.4 kmh ENE 10.4 mph16.7 kmh 30.15 in1021.0 mb 0.00 in0.0 mm 0.00 in0.0 mm 0.00 in0.0 mm
08:15 AM 52.3°F11.3°C 45.6°F7.6°C 78% 8.0 mph ENE12.9 kmh ENE 10.4 mph16.7 kmh 30.15 in1021.0 mb 0.00 in0.0 mm 0.00 in0.0 mm 0.00 in0.0 mm
08:20 AM 52.3°F11.3°C 45.6°F7.6°C 78% 7.2 mph NE11.6 kmh NE 10.7 mph17.2 kmh 30.15 in1021.0 mb 0.00 in0.0 mm 0.00 in0.0 mm 0.00 in0.0 mm
08:25 AM 52.6°F11.4°C 45.6°F7.6°C 77% 7.6 mph NE12.2 kmh NE 10.7 mph17.2 kmh 30.15 in1021.0 mb 0.00 in0.0 mm 0.00 in0.0 mm 0.00 in0.0 mm
08:30 AM 52.8°F11.6°C 45.8°F7.7°C 77% 7.5 mph ENE12.1 kmh ENE 10.1 mph16.3 kmh 30.15 in1021.0 mb 0.00 in0.0 mm 0.00 in0.0 mm 0.00 in0.0 mm
08:35 AM 52.8°F11.6°C 45.8°F7.7°C 77% 7.8 mph E12.6 kmh E 11.3 mph18.2 kmh 30.15 in1021.0 mb 0.00 in0.0 mm 0.00 in0.0 mm 0.00 in0.0 mm
08:40 AM 52.8°F11.6°C 45.8°F7.7°C 77% 7.7 mph E12.4 kmh E 11.3 mph18.2 kmh 30.15 in1021.0 mb 0.00 in0.0 mm 0.00 in0.0 mm 0.00 in0.0 mm
08:45 AM 52.8°F11.6°C 45.4°F7.4°C 76% 8.4 mph NE13.5 kmh NE 14.0 mph22.5 kmh 30.18 in1022.0 mb 0.00 in0.0 mm 0.00 in0.0 mm 0.00 in0.0 mm
08:50 AM 52.8°F11.6°C 45.4°F7.4°C 76% 10.9 mph NE17.5 kmh NE 16.4 mph26.4 kmh 30.18 in1022.0 mb 0.00 in0.0 mm 0.00 in0.0 mm 0.00 in0.0 mm
08:55 AM 52.8°F11.6°C 45.4°F7.4°C 76% 10.8 mph NE17.4 kmh NE 16.4 mph26.4 kmh 30.18 in1022.0 mb 0.00 in0.0 mm 0.00 in0.0 mm 0.00 in0.0 mm
09:00 AM 53.0°F11.7°C 45.6°F7.6°C 76% 9.5 mph NE15.3 kmh NE 14.0 mph22.5 kmh 30.15 in1021.0 mb 0.00 in0.0 mm 0.00 in0.0 mm 0.00 in0.0 mm
09:05 AM 53.2°F11.8°C 45.8°F7.7°C 76% 9.0 mph ENE14.5 kmh ENE 11.6 mph18.7 kmh 30.15 in1021.0 mb 0.00 in0.0 mm 0.00 in0.0 mm 0.00 in0.0 mm
09:10 AM 53.3°F11.8°C 46.3°F7.9°C 77% 8.8 mph ENE14.2 kmh ENE 11.6 mph18.7 kmh 30.15 in1021.0 mb 0.00 in0.0 mm 0.00 in0.0 mm 0.00 in0.0 mm
09:15 AM 53.5°F11.9°C 46.5°F8.1°C 77% 8.0 mph ENE12.9 kmh ENE 10.7 mph17.2 kmh 30.15 in1021.0 mb 0.00 in0.0 mm 0.00 in0.0 mm 0.00 in0.0 mm
09:20 AM 53.9°F12.2°C 46.5°F8.1°C 76% 8.6 mph ENE13.8 kmh ENE 12.8 mph20.6 kmh 30.15 in1021.0 mb 0.00 in0.0 mm 0.00 in0.0 mm 0.00 in0.0 mm
09:25 AM 54.0°F12.2°C 46.7°F8.2°C 76% 9.0 mph NE14.5 kmh NE 12.8 mph20.6 kmh 30.15 in1021.0 mb 0.00 in0.0 mm 0.00 in0.0 mm 0.00 in0.0 mm
09:30 AM 54.0°F12.2°C 46.7°F8.2°C 76% 7.8 mph ENE12.6 kmh ENE 11.3 mph18.2 kmh 30.18 in1022.0 mb 0.00 in0.0 mm 0.00 in0.0 mm 0.00 in0.0 mm
09:35 AM 54.4°F12.4°C 47.0°F8.3°C 76% 8.8 mph ENE14.2 kmh ENE 13.4 mph21.6 kmh 30.18 in1022.0 mb 0.00 in0.0 mm 0.00 in0.0 mm 0.00 in0.0 mm
09:40 AM 54.4°F12.4°C 46.6°F8.1°C 75% 9.3 mph ENE15.0 kmh ENE 13.4 mph21.6 kmh 30.18 in1022.0 mb 0.00 in0.0 mm 0.00 in0.0 mm 0.00 in0.0 mm
09:45 AM 54.6°F12.6°C 46.8°F8.2°C 75% 8.1 mph ENE13.0 kmh ENE 10.4 mph16.7 kmh 30.15 in1021.0 mb 0.00 in0.0 mm 0.00 in0.0 mm 0.00 in0.0 mm
09:50 AM 54.8°F12.7°C 47.0°F8.3°C 75% 8.1 mph NE13.0 kmh NE 11.3 mph18.2 kmh 30.15 in1021.0 mb 0.00 in0.0 mm 0.00 in0.0 mm 0.00 in0.0 mm
09:55 AM 55.0°F12.8°C 47.2°F8.4°C 75% 8.6 mph NE13.8 kmh NE 12.5 mph20.1 kmh 30.15 in1021.0 mb 0.00 in0.0 mm 0.00 in0.0 mm 0.00 in0.0 mm
10:00 AM 55.1°F12.8°C 47.3°F8.5°C 75% 8.0 mph NE12.9 kmh NE 12.5 mph20.1 kmh 30.15 in1021.0 mb 0.00 in0.0 mm 0.00 in0.0 mm 0.00 in0.0 mm
10:05 AM 55.3°F12.9°C 47.5°F8.6°C 75% 7.6 mph NE12.2 kmh NE 10.4 mph16.7 kmh 30.15 in1021.0 mb 0.00 in0.0 mm 0.00 in0.0 mm 0.00 in0.0 mm
10:10 AM 55.5°F13.1°C 47.7°F8.7°C 75% 8.0 mph NE12.9 kmh NE 10.1 mph16.3 kmh 30.15 in1021.0 mb 0.00 in0.0 mm 0.00 in0.0 mm 0.00 in0.0 mm
10:15 AM 55.5°F13.1°C 47.3°F8.5°C 74% 7.8 mph ENE12.6 kmh ENE 9.8 mph15.8 kmh 30.15 in1021.0 mb 0.00 in0.0 mm 0.00 in0.0 mm 0.00 in0.0 mm
10:20 AM 55.3°F12.9°C 47.2°F8.4°C 74% 7.0 mph ENE11.3 kmh ENE 9.8 mph15.8 kmh 30.15 in1021.0 mb 0.00 in0.0 mm 0.00 in0.0 mm 0.00 in0.0 mm
10:25 AM 55.3°F12.9°C 47.2°F8.4°C 74% 7.1 mph ENE11.4 kmh ENE 13.4 mph21.6 kmh 30.15 in1021.0 mb 0.00 in0.0 mm 0.00 in0.0 mm 0.00 in0.0 mm
10:30 AM 55.1°F12.8°C 47.0°F8.3°C 74% 7.4 mph ENE11.9 kmh ENE 13.4 mph21.6 kmh 30.18 in1022.0 mb 0.00 in0.0 mm 0.00 in0.0 mm 0.00 in0.0 mm
10:35 AM 55.1°F12.8°C 47.0°F8.3°C 74% 6.6 mph NE10.6 kmh NE 9.2 mph14.8 kmh 30.18 in1022.0 mb 0.00 in0.0 mm 0.00 in0.0 mm 0.00 in0.0 mm
10:40 AM 55.1°F12.8°C 47.0°F8.3°C 74% 6.8 mph NE10.9 kmh NE 9.5 mph15.3 kmh 30.18 in1022.0 mb 0.00 in0.0 mm 0.00 in0.0 mm 0.00 in0.0 mm
10:45 AM 55.1°F12.8°C 47.0°F8.3°C 74% 7.2 mph NE11.6 kmh NE 9.5 mph15.3 kmh 30.18 in1022.0 mb 0.00 in0.0 mm 0.00 in0.0 mm 0.00 in0.0 mm
10:50 AM 55.1°F12.8°C 47.0°F8.3°C 74% 7.4 mph NE11.9 kmh NE 9.5 mph15.3 kmh 30.18 in1022.0 mb 0.00 in0.0 mm 0.00 in0.0 mm 0.00 in0.0 mm
10:55 AM 55.0°F12.8°C 46.8°F8.2°C 74% 6.7 mph NE10.8 kmh NE 8.3 mph13.4 kmh 30.18 in1022.0 mb 0.00 in0.0 mm 0.00 in0.0 mm 0.00 in0.0 mm
11:00 AM 55.1°F12.8°C 47.0°F8.3°C 74% 5.4 mph NE8.7 kmh NE 8.0 mph12.9 kmh 30.15 in1021.0 mb 0.00 in0.0 mm 0.00 in0.0 mm 0.00 in0.0 mm
11:05 AM 55.0°F12.8°C 46.8°F8.2°C 74% 5.0 mph NE8.0 kmh NE 8.0 mph12.9 kmh 30.15 in1021.0 mb 0.00 in0.0 mm 0.00 in0.0 mm 0.00 in0.0 mm
11:10 AM 55.0°F12.8°C 46.8°F8.2°C 74% 6.1 mph NE9.8 kmh NE 12.2 mph19.6 kmh 30.15 in1021.0 mb 0.00 in0.0 mm 0.00 in0.0 mm 0.00 in0.0 mm
11:15 AM 54.8°F12.7°C 46.6°F8.1°C 74% 6.0 mph NE9.7 kmh NE 12.2 mph19.6 kmh 30.15 in1021.0 mb 0.00 in0.0 mm 0.00 in0.0 mm 0.00 in0.0 mm
11:20 AM 54.8°F12.7°C 46.6°F8.1°C 74% 5.4 mph NE8.7 kmh NE 8.6 mph13.8 kmh 30.15 in1021.0 mb 0.00 in0.0 mm 0.00 in0.0 mm 0.00 in0.0 mm
11:25 AM 54.8°F12.7°C 46.6°F8.1°C 74% 6.3 mph NE10.1 kmh NE 10.4 mph16.7 kmh 30.15 in1021.0 mb 0.00 in0.0 mm 0.00 in0.0 mm 0.00 in0.0 mm
11:30 AM 54.8°F12.7°C 47.0°F8.3°C 75% 6.7 mph ENE10.8 kmh ENE 10.4 mph16.7 kmh 30.15 in1021.0 mb 0.00 in0.0 mm 0.00 in0.0 mm 0.00 in0.0 mm
11:35 AM 54.8°F12.7°C 47.0°F8.3°C 75% 6.1 mph ENE9.8 kmh ENE 9.5 mph15.3 kmh 30.15 in1021.0 mb 0.00 in0.0 mm 0.00 in0.0 mm 0.00 in0.0 mm
11:40 AM 54.8°F12.7°C 47.3°F8.5°C 76% 6.1 mph ENE9.8 kmh ENE 8.3 mph13.4 kmh 30.15 in1021.0 mb 0.00 in0.0 mm 0.00 in0.0 mm 0.00 in0.0 mm
11:45 AM 54.8°F12.7°C 47.7°F8.7°C 77% 5.6 mph ENE9.0 kmh ENE 8.3 mph13.4 kmh 30.15 in1021.0 mb 0.00 in0.0 mm 0.00 in0.0 mm 0.00 in0.0 mm
11:50 AM 55.0°F12.8°C 48.2°F9.0°C 78% 5.6 mph NE9.0 kmh NE 8.3 mph13.4 kmh 30.15 in1021.0 mb 0.00 in0.0 mm 0.00 in0.0 mm 0.00 in0.0 mm
11:55 AM 55.0°F12.8°C 48.2°F9.0°C 78% 5.9 mph NE9.5 kmh NE 8.3 mph13.4 kmh 30.15 in1021.0 mb 0.00 in0.0 mm 0.00 in0.0 mm 0.00 in0.0 mm
12:00 PM 55.1°F12.8°C 48.0°F8.9°C 77% 7.2 mph NE11.6 kmh NE 11.3 mph18.2 kmh 30.15 in1021.0 mb 0.00 in0.0 mm 0.00 in0.0 mm 0.00 in0.0 mm
12:05 PM 55.1°F12.8°C 48.0°F8.9°C 77% 8.4 mph ENE13.5 kmh ENE 11.3 mph18.2 kmh 30.15 in1021.0 mb 0.00 in0.0 mm 0.00 in0.0 mm 0.00 in0.0 mm
12:10 PM 55.1°F12.8°C 48.0°F8.9°C 77% 8.7 mph ENE14.0 kmh ENE 14.6 mph23.5 kmh 30.15 in1021.0 mb 0.00 in0.0 mm 0.00 in0.0 mm 0.00 in0.0 mm
12:15 PM 55.3°F12.9°C 48.6°F9.2°C 78% 7.9 mph NE12.7 kmh NE 14.6 mph23.5 kmh 30.15 in1021.0 mb 0.00 in0.0 mm 0.00 in0.0 mm 0.00 in0.0 mm
12:20 PM 55.3°F12.9°C 48.6°F9.2°C 78% 6.9 mph NE11.1 kmh NE 10.1 mph16.3 kmh 30.15 in1021.0 mb 0.00 in0.0 mm 0.00 in0.0 mm 0.00 in0.0 mm
12:25 PM 55.3°F12.9°C 48.6°F9.2°C 78% 6.9 mph NE11.1 kmh NE 10.4 mph16.7 kmh 30.15 in1021.0 mb 0.00 in0.0 mm 0.00 in0.0 mm 0.00 in0.0 mm
12:30 PM 55.3°F12.9°C 48.9°F9.4°C 79% 7.8 mph NE12.6 kmh NE 10.7 mph17.2 kmh 30.15 in1021.0 mb 0.00 in0.0 mm 0.00 in0.0 mm 0.00 in0.0 mm
12:35 PM 55.3°F12.9°C 48.9°F9.4°C 79% 7.0 mph ENE11.3 kmh ENE 10.7 mph17.2 kmh 30.15 in1021.0 mb 0.00 in0.0 mm 0.00 in0.0 mm 0.00 in0.0 mm
12:40 PM 55.3°F12.9°C 48.9°F9.4°C 79% 6.3 mph ENE10.1 kmh ENE 8.6 mph13.8 kmh 30.15 in1021.0 mb 0.00 in0.0 mm 0.00 in0.0 mm 0.00 in0.0 mm
12:45 PM 55.5°F13.1°C 49.1°F9.5°C 79% 5.6 mph ENE9.0 kmh ENE 7.7 mph12.4 kmh 30.15 in1021.0 mb 0.00 in0.0 mm 0.00 in0.0 mm 0.00 in0.0 mm
12:50 PM 55.7°F13.2°C 49.3°F9.6°C 79% 6.4 mph ENE10.3 kmh ENE 10.1 mph16.3 kmh 30.15 in1021.0 mb 0.00 in0.0 mm 0.00 in0.0 mm 0.00 in0.0 mm
12:55 PM 55.7°F13.2°C 49.3°F9.6°C 79% 6.6 mph NE10.6 kmh NE 10.1 mph16.3 kmh 30.15 in1021.0 mb 0.00 in0.0 mm 0.00 in0.0 mm 0.00 in0.0 mm
01:00 PM 55.7°F13.2°C 49.3°F9.6°C 79% 7.2 mph ENE11.6 kmh ENE 10.7 mph17.2 kmh 30.15 in1021.0 mb 0.00 in0.0 mm 0.00 in0.0 mm 0.00 in0.0 mm
01:05 PM 55.7°F13.2°C 49.3°F9.6°C 79% 7.4 mph ENE11.9 kmh ENE 10.7 mph17.2 kmh 30.15 in1021.0 mb 0.00 in0.0 mm 0.00 in0.0 mm 0.00 in0.0 mm
01:10 PM 56.0°F13.3°C 49.3°F9.6°C 78% 7.3 mph NE11.7 kmh NE 9.8 mph15.8 kmh 30.15 in1021.0 mb 0.00 in0.0 mm 0.00 in0.0 mm 0.00 in0.0 mm
01:15 PM 56.0°F13.3°C 49.3°F9.6°C 78% 8.6 mph E13.8 kmh E 11.6 mph18.7 kmh 30.12 in1020.0 mb 0.00 in0.0 mm 0.00 in0.0 mm 0.00 in0.0 mm
01:20 PM 56.0°F13.3°C 49.3°F9.6°C 78% 8.6 mph ENE13.8 kmh ENE 11.6 mph18.7 kmh 30.12 in1020.0 mb 0.00 in0.0 mm 0.00 in0.0 mm 0.00 in0.0 mm
01:25 PM 56.0°F13.3°C 49.3°F9.6°C 78% 7.9 mph NE12.7 kmh NE 11.3 mph18.2 kmh 30.12 in1020.0 mb 0.00 in0.0 mm 0.00 in0.0 mm 0.00 in0.0 mm
01:30 PM 56.0°F13.3°C 49.3°F9.6°C 78% 8.0 mph ENE12.9 kmh ENE 10.7 mph17.2 kmh 30.15 in1021.0 mb 0.00 in0.0 mm 0.00 in0.0 mm 0.00 in0.0 mm
01:35 PM 56.0°F13.3°C 49.3°F9.6°C 78% 7.7 mph ENE12.4 kmh ENE 9.2 mph14.8 kmh 30.15 in1021.0 mb 0.00 in0.0 mm 0.00 in0.0 mm 0.00 in0.0 mm
01:40 PM 56.2°F13.4°C 49.4°F9.7°C 78% 6.7 mph NE10.8 kmh NE 8.6 mph13.8 kmh 30.15 in1021.0 mb 0.00 in0.0 mm 0.00 in0.0 mm 0.00 in0.0 mm
01:45 PM 56.4°F13.6°C 49.6°F9.8°C 78% 6.1 mph NE9.8 kmh NE 8.3 mph13.4 kmh 30.15 in1021.0 mb 0.00 in0.0 mm 0.00 in0.0 mm 0.00 in0.0 mm
01:50 PM 56.4°F13.6°C 49.6°F9.8°C 78% 6.6 mph NE10.6 kmh NE 8.3 mph13.4 kmh 30.15 in1021.0 mb 0.00 in0.0 mm 0.00 in0.0 mm 0.00 in0.0 mm
01:55 PM 56.6°F13.7°C 49.8°F9.9°C 78% 6.1 mph ENE9.8 kmh ENE 8.3 mph13.4 kmh 30.15 in1021.0 mb 0.00 in0.0 mm 0.00 in0.0 mm 0.00 in0.0 mm
02:00 PM 56.6°F13.7°C 49.8°F9.9°C 78% 5.0 mph ENE8.0 kmh ENE 8.0 mph12.9 kmh 30.12 in1020.0 mb 0.00 in0.0 mm 0.00 in0.0 mm 0.00 in0.0 mm
02:05 PM 56.8°F13.8°C 50.3°F10.2°C 79% 6.3 mph NE10.1 kmh NE 12.5 mph20.1 kmh 30.12 in1020.0 mb 0.00 in0.0 mm 0.00 in0.0 mm 0.00 in0.0 mm
02:10 PM 56.8°F13.8°C 50.3°F10.2°C 79% 7.0 mph NE11.3 kmh NE 12.5 mph20.1 kmh 30.12 in1020.0 mb 0.00 in0.0 mm 0.00 in0.0 mm 0.00 in0.0 mm
02:15 PM 56.8°F13.8°C 50.3°F10.2°C 79% 6.9 mph NE11.1 kmh NE 10.1 mph16.3 kmh 30.15 in1021.0 mb 0.00 in0.0 mm 0.00 in0.0 mm 0.00 in0.0 mm
02:20 PM 56.9°F13.8°C 50.5°F10.3°C 79% 6.4 mph NE10.3 kmh NE 10.1 mph16.3 kmh 30.15 in1021.0 mb 0.00 in0.0 mm 0.00 in0.0 mm 0.00 in0.0 mm
02:25 PM 57.1°F13.9°C 50.7°F10.4°C 79% 6.0 mph ENE9.7 kmh ENE 8.3 mph13.4 kmh 30.15 in1021.0 mb 0.00 in0.0 mm 0.00 in0.0 mm 0.00 in0.0 mm
02:30 PM 56.9°F13.8°C 50.5°F10.3°C 79% 7.1 mph NE11.4 kmh NE 9.8 mph15.8 kmh 30.12 in1020.0 mb 0.00 in0.0 mm 0.00 in0.0 mm 0.00 in0.0 mm
02:35 PM 56.9°F13.8°C 50.5°F10.3°C 79% 7.5 mph NE12.1 kmh NE 9.8 mph15.8 kmh 30.12 in1020.0 mb 0.00 in0.0 mm 0.00 in0.0 mm 0.00 in0.0 mm
02:40 PM 56.8°F13.8°C 50.0°F10.0°C 78% 6.5 mph NE10.5 kmh NE 8.6 mph13.8 kmh 30.12 in1020.0 mb 0.00 in0.0 mm 0.00 in0.0 mm 0.00 in0.0 mm
02:45 PM 56.4°F13.6°C 49.6°F9.8°C 78% 6.2 mph NE10.0 kmh NE 7.7 mph12.4 kmh 30.15 in1021.0 mb 0.00 in0.0 mm 0.00 in0.0 mm 0.00 in0.0 mm
02:50 PM 56.4°F13.6°C 49.6°F9.8°C 78% 7.1 mph NE11.4 kmh NE 11.3 mph18.2 kmh 30.15 in1021.0 mb 0.00 in0.0 mm 0.00 in0.0 mm 0.00 in0.0 mm
02:55 PM 56.2°F13.4°C 49.8°F9.9°C 79% 5.5 mph NE8.9 kmh NE 11.3 mph18.2 kmh 30.15 in1021.0 mb 0.00 in0.0 mm 0.00 in0.0 mm 0.00 in0.0 mm
03:00 PM 56.0°F13.3°C 49.6°F9.8°C 79% 5.7 mph NE9.2 kmh NE 10.7 mph17.2 kmh 30.12 in1020.0 mb 0.00 in0.0 mm 0.00 in0.0 mm 0.00 in0.0 mm
03:05 PM 55.8°F13.2°C 49.8°F9.9°C 80% 6.1 mph NE9.8 kmh NE 10.7 mph17.2 kmh 30.12 in1020.0 mb 0.00 in0.0 mm 0.00 in0.0 mm 0.00 in0.0 mm
03:10 PM 55.8°F13.2°C 49.8°F9.9°C 80% 5.7 mph NE9.2 kmh NE 8.6 mph13.8 kmh 30.12 in1020.0 mb 0.00 in0.0 mm 0.00 in0.0 mm 0.00 in0.0 mm
03:15 PM 55.8°F13.2°C 49.8°F9.9°C 80% 5.7 mph NE9.2 kmh NE 8.6 mph13.8 kmh 30.12 in1020.0 mb 0.00 in0.0 mm 0.00 in0.0 mm 0.00 in0.0 mm
03:20 PM 55.8°F13.2°C 50.1°F10.1°C 81% 6.2 mph NE10.0 kmh NE 10.1 mph16.3 kmh 30.12 in1020.0 mb 0.00 in0.0 mm 0.00 in0.0 mm 0.00 in0.0 mm
03:25 PM 55.8°F13.2°C 50.1°F10.1°C 81% 6.6 mph NE10.6 kmh NE 10.1 mph16.3 kmh 30.12 in1020.0 mb 0.00 in0.0 mm 0.00 in0.0 mm 0.00 in0.0 mm
03:30 PM 56.0°F13.3°C 50.3°F10.2°C 81% 5.4 mph NE8.7 kmh NE 8.0 mph12.9 kmh 30.12 in1020.0 mb 0.00 in0.0 mm 0.00 in0.0 mm 0.00 in0.0 mm
03:35 PM 56.0°F13.3°C 50.3°F10.2°C 81% 5.0 mph NE8.0 kmh NE 7.4 mph11.9 kmh 30.12 in1020.0 mb 0.00 in0.0 mm 0.00 in0.0 mm 0.00 in0.0 mm
03:40 PM 56.0°F13.3°C 50.3°F10.2°C 81% 6.0 mph NE9.7 kmh NE 9.5 mph15.3 kmh 30.12 in1020.0 mb 0.00 in0.0 mm 0.00 in0.0 mm 0.00 in0.0 mm
03:45 PM 56.0°F13.3°C 50.3°F10.2°C 81% 6.9 mph NE11.1 kmh NE 9.5 mph15.3 kmh 30.12 in1020.0 mb 0.00 in0.0 mm 0.00 in0.0 mm 0.00 in0.0 mm
03:50 PM 56.4°F13.6°C 50.6°F10.3°C 81% 6.2 mph NE10.0 kmh NE 9.5 mph15.3 kmh 30.12 in1020.0 mb 0.00 in0.0 mm 0.00 in0.0 mm 0.00 in0.0 mm
03:55 PM 56.6°F13.7°C 50.8°F10.4°C 81% 5.4 mph ENE8.7 kmh ENE 8.6 mph13.8 kmh 30.12 in1020.0 mb 0.00 in0.0 mm 0.00 in0.0 mm 0.00 in0.0 mm
04:00 PM 56.6°F13.7°C 50.8°F10.4°C 81% 6.1 mph NE9.8 kmh NE 10.1 mph16.3 kmh 30.12 in1020.0 mb 0.00 in0.0 mm 0.00 in0.0 mm 0.00 in0.0 mm
04:05 PM 56.6°F13.7°C 50.8°F10.4°C 81% 6.7 mph NE10.8 kmh NE 10.7 mph17.2 kmh 30.12 in1020.0 mb 0.00 in0.0 mm 0.00 in0.0 mm 0.00 in0.0 mm
04:10 PM 56.4°F13.6°C 50.3°F10.2°C 80% 6.2 mph NE10.0 kmh NE 10.7 mph17.2 kmh 30.12 in1020.0 mb 0.00 in0.0 mm 0.00 in0.0 mm 0.00 in0.0 mm
04:15 PM 56.4°F13.6°C 50.3°F10.2°C 80% 5.8 mph ENE9.3 kmh ENE 7.4 mph11.9 kmh 30.12 in1020.0 mb 0.00 in0.0 mm 0.00 in0.0 mm 0.00 in0.0 mm
04:20 PM 56.4°F13.6°C 50.3°F10.2°C 80% 5.8 mph ENE9.3 kmh ENE 7.4 mph11.9 kmh 30.12 in1020.0 mb 0.00 in0.0 mm 0.00 in0.0 mm 0.00 in0.0 mm
04:25 PM 56.2°F13.4°C 50.1°F10.1°C 80% 6.2 mph NE10.0 kmh NE 9.2 mph14.8 kmh 30.12 in1020.0 mb 0.00 in0.0 mm 0.00 in0.0 mm 0.00 in0.0 mm
04:30 PM 56.2°F13.4°C 50.1°F10.1°C 80% 6.1 mph NE9.8 kmh NE 9.2 mph14.8 kmh 30.12 in1020.0 mb 0.00 in0.0 mm 0.00 in0.0 mm 0.00 in0.0 mm
04:35 PM 56.2°F13.4°C 50.5°F10.3°C 81% 4.8 mph NE7.7 kmh NE 7.1 mph11.4 kmh 30.12 in1020.0 mb 0.00 in0.0 mm 0.00 in0.0 mm 0.00 in0.0 mm
04:40 PM 56.2°F13.4°C 50.5°F10.3°C 81% 3.9 mph NE6.3 kmh NE 7.1 mph11.4 kmh 30.12 in1020.0 mb 0.00 in0.0 mm 0.00 in0.0 mm 0.00 in0.0 mm
04:45 PM 56.2°F13.4°C 50.5°F10.3°C 81% 3.6 mph NE5.8 kmh NE 7.1 mph11.4 kmh 30.12 in1020.0 mb 0.00 in0.0 mm 0.00 in0.0 mm 0.00 in0.0 mm
04:50 PM 56.2°F13.4°C 50.5°F10.3°C 81% 4.6 mph NE7.4 kmh NE 8.0 mph12.9 kmh 30.12 in1020.0 mb 0.00 in0.0 mm 0.00 in0.0 mm 0.00 in0.0 mm
04:55 PM 56.0°F13.3°C 50.3°F10.2°C 81% 5.2 mph NE8.4 kmh NE 8.0 mph12.9 kmh 30.12 in1020.0 mb 0.00 in0.0 mm 0.00 in0.0 mm 0.00 in0.0 mm
05:00 PM 56.0°F13.3°C 50.3°F10.2°C 81% 5.2 mph NE8.4 kmh NE 8.3 mph13.4 kmh 30.12 in1020.0 mb 0.00 in0.0 mm 0.00 in0.0 mm 0.00 in0.0 mm
05:05 PM 55.8°F13.2°C 50.4°F10.2°C 82% 5.7 mph NE9.2 kmh NE 8.3 mph13.4 kmh 30.12 in1020.0 mb 0.00 in0.0 mm 0.00 in0.0 mm 0.00 in0.0 mm
05:10 PM 55.8°F13.2°C 50.4°F10.2°C 82% 5.4 mph ENE8.7 kmh ENE 8.3 mph13.4 kmh 30.12 in1020.0 mb 0.00 in0.0 mm 0.00 in0.0 mm 0.00 in0.0 mm
05:15 PM 55.8°F13.2°C 50.4°F10.2°C 82% 4.9 mph ENE7.9 kmh ENE 7.1 mph11.4 kmh 30.12 in1020.0 mb 0.00 in0.0 mm 0.00 in0.0 mm 0.00 in0.0 mm
05:20 PM 55.7°F13.2°C 50.3°F10.2°C 82% 4.4 mph ENE7.1 kmh ENE 7.1 mph11.4 kmh 30.12 in1020.0 mb 0.00 in0.0 mm 0.00 in0.0 mm 0.00 in0.0 mm
05:25 PM 55.7°F13.2°C 50.3°F10.2°C 82% 3.6 mph NE5.8 kmh NE 6.5 mph10.5 kmh 30.12 in1020.0 mb 0.00 in0.0 mm 0.00 in0.0 mm 0.00 in0.0 mm
05:30 PM 55.7°F13.2°C 50.3°F10.2°C 82% 3.2 mph NE5.1 kmh NE 5.1 mph8.2 kmh 30.09 in1019.0 mb 0.00 in0.0 mm 0.00 in0.0 mm 0.00 in0.0 mm
05:35 PM 55.7°F13.2°C 50.6°F10.3°C 83% 2.6 mph NE4.2 kmh NE 4.8 mph7.7 kmh 30.09 in1019.0 mb 0.00 in0.0 mm 0.00 in0.0 mm 0.00 in0.0 mm
05:40 PM 55.7°F13.2°C 50.6°F10.3°C 83% 2.3 mph NE3.7 kmh NE 3.6 mph5.8 kmh 30.09 in1019.0 mb 0.00 in0.0 mm 0.00 in0.0 mm 0.00 in0.0 mm
05:45 PM 55.5°F13.1°C 50.4°F10.2°C 83% 3.1 mph NE5.0 kmh NE 4.5 mph7.2 kmh 30.09 in1019.0 mb 0.00 in0.0 mm 0.00 in0.0 mm 0.00 in0.0 mm
05:50 PM 55.5°F13.1°C 50.4°F10.2°C 83% 3.3 mph NE5.3 kmh NE 7.7 mph12.4 kmh 30.09 in1019.0 mb 0.00 in0.0 mm 0.00 in0.0 mm 0.00 in0.0 mm
05:55 PM 55.5°F13.1°C 50.7°F10.4°C 84% 3.2 mph NNE5.1 kmh NNE 7.7 mph12.4 kmh 30.09 in1019.0 mb 0.04 in1.0 mm 0.48 in12.2 mm 0.04 in1.0 mm
06:00 PM 55.5°F13.1°C 50.7°F10.4°C 84% 2.7 mph NE4.3 kmh NE 3.9 mph6.3 kmh 30.09 in1019.0 mb 0.04 in1.0 mm 0.00 in0.0 mm 0.04 in1.0 mm
06:05 PM 55.5°F13.1°C 50.7°F10.4°C 84% 3.7 mph ENE6.0 kmh ENE 7.1 mph11.4 kmh 30.09 in1019.0 mb 0.04 in1.0 mm 0.00 in0.0 mm 0.04 in1.0 mm
06:10 PM 55.7°F13.2°C 50.9°F10.5°C 84% 5.0 mph NE8.0 kmh NE 7.1 mph11.4 kmh 30.09 in1019.0 mb 0.04 in1.0 mm 0.00 in0.0 mm 0.04 in1.0 mm
06:15 PM 55.7°F13.2°C 50.9°F10.5°C 84% 3.9 mph NE6.3 kmh NE 6.2 mph10.0 kmh 30.09 in1019.0 mb 0.04 in1.0 mm 0.00 in0.0 mm 0.04 in1.0 mm
06:20 PM 55.7°F13.2°C 50.9°F10.5°C 84% 4.4 mph NE7.1 kmh NE 6.5 mph10.5 kmh 30.09 in1019.0 mb 0.04 in1.0 mm 0.00 in0.0 mm 0.04 in1.0 mm
06:25 PM 55.7°F13.2°C 50.9°F10.5°C 84% 4.4 mph NE7.1 kmh NE 6.5 mph10.5 kmh 30.09 in1019.0 mb 0.04 in1.0 mm 0.00 in0.0 mm 0.04 in1.0 mm
06:30 PM 55.7°F13.2°C 50.9°F10.5°C 84% 3.0 mph ENE4.8 kmh ENE 4.8 mph7.7 kmh 30.09 in1019.0 mb 0.04 in1.0 mm 0.00 in0.0 mm 0.04 in1.0 mm
06:35 PM 55.7°F13.2°C 50.9°F10.5°C 84% 2.5 mph NE4.0 kmh NE 4.8 mph7.7 kmh 30.09 in1019.0 mb 0.04 in1.0 mm 0.00 in0.0 mm 0.04 in1.0 mm
06:40 PM 55.7°F13.2°C 50.9°F10.5°C 84% 2.6 mph ENE4.2 kmh ENE 5.7 mph9.2 kmh 30.09 in1019.0 mb 0.04 in1.0 mm 0.00 in0.0 mm 0.04 in1.0 mm
06:45 PM 55.7°F13.2°C 51.2°F10.7°C 85% 3.7 mph E6.0 kmh E 5.7 mph9.2 kmh 30.09 in1019.0 mb 0.04 in1.0 mm 0.00 in0.0 mm 0.04 in1.0 mm
06:50 PM 55.7°F13.2°C 51.2°F10.7°C 85% 3.9 mph E6.3 kmh E 5.7 mph9.2 kmh 30.09 in1019.0 mb 0.04 in1.0 mm 0.00 in0.0 mm 0.04 in1.0 mm
06:55 PM 55.5°F13.1°C 51.1°F10.6°C 85% 3.5 mph E5.6 kmh E 5.7 mph9.2 kmh 30.09 in1019.0 mb 0.00 in0.0 mm 0.00 in0.0 mm 0.04 in1.0 mm
07:00 PM 55.5°F13.1°C 51.1°F10.6°C 85% 3.0 mph E4.8 kmh E 4.5 mph7.2 kmh 30.09 in1019.0 mb 0.00 in0.0 mm 0.00 in0.0 mm 0.04 in1.0 mm
07:05 PM 55.5°F13.1°C 51.1°F10.6°C 85% 2.7 mph E4.3 kmh E 3.9 mph6.3 kmh 30.09 in1019.0 mb 0.00 in0.0 mm 0.00 in0.0 mm 0.04 in1.0 mm
07:10 PM 55.5°F13.1°C 51.1°F10.6°C 85% 3.2 mph E5.1 kmh E 4.8 mph7.7 kmh 30.09 in1019.0 mb 0.00 in0.0 mm 0.00 in0.0 mm 0.04 in1.0 mm
07:15 PM 55.3°F12.9°C 51.2°F10.7°C 86% 2.9 mph E4.7 kmh E 4.8 mph7.7 kmh 30.09 in1019.0 mb 0.00 in0.0 mm 0.00 in0.0 mm 0.04 in1.0 mm
07:20 PM 55.3°F12.9°C 51.2°F10.7°C 86% 1.5 mph E2.4 kmh E 3.9 mph6.3 kmh 30.09 in1019.0 mb 0.00 in0.0 mm 0.00 in0.0 mm 0.04 in1.0 mm
07:25 PM 55.3°F12.9°C 51.2°F10.7°C 86% 1.4 mph E2.3 kmh E 3.9 mph6.3 kmh 30.09 in1019.0 mb 0.00 in0.0 mm 0.00 in0.0 mm 0.04 in1.0 mm
07:30 PM 55.3°F12.9°C 51.2°F10.7°C 86% 1.7 mph ENE2.7 kmh ENE 3.3 mph5.3 kmh 30.09 in1019.0 mb 0.00 in0.0 mm 0.00 in0.0 mm 0.04 in1.0 mm
07:35 PM 55.1°F12.8°C 51.0°F10.6°C 86% 2.0 mph NE3.2 kmh NE 3.3 mph5.3 kmh 30.09 in1019.0 mb 0.00 in0.0 mm 0.00 in0.0 mm 0.04 in1.0 mm
07:40 PM 55.1°F12.8°C 51.0°F10.6°C 86% 1.5 mph NE2.4 kmh NE 3.6 mph5.8 kmh 30.09 in1019.0 mb 0.00 in0.0 mm 0.00 in0.0 mm 0.04 in1.0 mm
07:45 PM 55.1°F12.8°C 51.3°F10.7°C 87% 2.1 mph ENE3.4 kmh ENE 3.9 mph6.3 kmh 30.09 in1019.0 mb 0.00 in0.0 mm 0.00 in0.0 mm 0.04 in1.0 mm
07:50 PM 55.1°F12.8°C 51.3°F10.7°C 87% 2.4 mph E3.9 kmh E 3.9 mph6.3 kmh 30.09 in1019.0 mb 0.00 in0.0 mm 0.00 in0.0 mm 0.04 in1.0 mm
07:55 PM 55.1°F12.8°C 51.3°F10.7°C 87% 1.7 mph E2.7 kmh E 3.3 mph5.3 kmh 30.09 in1019.0 mb 0.00 in0.0 mm 0.00 in0.0 mm 0.04 in1.0 mm
08:00 PM 55.1°F12.8°C 51.3°F10.7°C 87% 1.1 mph E1.8 kmh E 2.7 mph4.3 kmh 30.09 in1019.0 mb 0.00 in0.0 mm 0.00 in0.0 mm 0.04 in1.0 mm
08:05 PM 55.0°F12.8°C 51.2°F10.7°C 87% 0.9 mph E1.4 kmh E 1.8 mph2.9 kmh 30.09 in1019.0 mb 0.00 in0.0 mm 0.00 in0.0 mm 0.04 in1.0 mm
08:10 PM 55.0°F12.8°C 51.2°F10.7°C 87% 0.9 mph E1.4 kmh E 1.8 mph2.9 kmh 30.09 in1019.0 mb 0.04 in1.0 mm 0.48 in12.2 mm 0.08 in2.0 mm
08:15 PM 55.0°F12.8°C 51.2°F10.7°C 87% 0.3 mph E0.5 kmh E 3.0 mph4.8 kmh 30.12 in1020.0 mb 0.04 in1.0 mm 0.00 in0.0 mm 0.08 in2.0 mm
08:20 PM 55.0°F12.8°C 51.5°F10.8°C 88% 1.4 mph E2.3 kmh E 3.0 mph4.8 kmh 30.12 in1020.0 mb 0.04 in1.0 mm 0.00 in0.0 mm 0.08 in2.0 mm
08:25 PM 55.0°F12.8°C 51.5°F10.8°C 88% 2.2 mph E3.5 kmh E 3.3 mph5.3 kmh 30.12 in1020.0 mb 0.04 in1.0 mm 0.00 in0.0 mm 0.08 in2.0 mm
08:30 PM 55.0°F12.8°C 51.5°F10.8°C 88% 2.2 mph ENE3.5 kmh ENE 4.5 mph7.2 kmh 30.12 in1020.0 mb 0.04 in1.0 mm 0.00 in0.0 mm 0.08 in2.0 mm
08:35 PM 54.8°F12.7°C 51.3°F10.7°C 88% 1.5 mph NE2.4 kmh NE 4.5 mph7.2 kmh 30.12 in1020.0 mb 0.04 in1.0 mm 0.00 in0.0 mm 0.08 in2.0 mm
08:40 PM 54.8°F12.7°C 51.3°F10.7°C 88% 1.6 mph ENE2.6 kmh ENE 3.3 mph5.3 kmh 30.12 in1020.0 mb 0.04 in1.0 mm 0.00 in0.0 mm 0.08 in2.0 mm
08:45 PM 54.8°F12.7°C 51.3°F10.7°C 88% 1.7 mph E2.7 kmh E 3.3 mph5.3 kmh 30.12 in1020.0 mb 0.04 in1.0 mm 0.00 in0.0 mm 0.08 in2.0 mm
08:50 PM 54.8°F12.7°C 51.6°F10.9°C 89% 1.5 mph E2.4 kmh E 3.0 mph4.8 kmh 30.12 in1020.0 mb 0.04 in1.0 mm 0.00 in0.0 mm 0.08 in2.0 mm
08:55 PM 54.8°F12.7°C 51.6°F10.9°C 89% 0.7 mph E1.1 kmh E 3.0 mph4.8 kmh 30.12 in1020.0 mb 0.04 in1.0 mm 0.00 in0.0 mm 0.08 in2.0 mm
09:00 PM 54.8°F12.7°C 51.6°F10.9°C 89% 0.1 mph E0.2 kmh E 1.2 mph1.9 kmh 30.12 in1020.0 mb 0.04 in1.0 mm 0.00 in0.0 mm 0.08 in2.0 mm
09:05 PM 54.6°F12.6°C 51.4°F10.8°C 89% 0.1 mph E0.2 kmh E 1.2 mph1.9 kmh 30.12 in1020.0 mb 0.04 in1.0 mm 0.00 in0.0 mm 0.08 in2.0 mm
09:10 PM 54.6°F12.6°C 51.4°F10.8°C 89% Calm Calm -- 30.12 in1020.0 mb 0.00 in0.0 mm 0.00 in0.0 mm 0.08 in2.0 mm
09:15 PM 54.6°F12.6°C 51.4°F10.8°C 89% Calm Calm -- 30.09 in1019.0 mb 0.00 in0.0 mm 0.00 in0.0 mm 0.08 in2.0 mm
09:20 PM 54.6°F12.6°C 51.4°F10.8°C 89% 0.6 mph WSW1.0 kmh WSW 1.8 mph2.9 kmh 30.09 in1019.0 mb 0.00 in0.0 mm 0.00 in0.0 mm 0.08 in2.0 mm
09:25 PM 54.6°F12.6°C 51.4°F10.8°C 89% 0.8 mph WSW1.3 kmh WSW 1.8 mph2.9 kmh 30.09 in1019.0 mb 0.00 in0.0 mm 0.00 in0.0 mm 0.08 in2.0 mm
09:30 PM 54.6°F12.6°C 51.4°F10.8°C 89% 0.2 mph SW0.3 kmh SW 1.2 mph1.9 kmh 30.09 in1019.0 mb 0.00 in0.0 mm 0.00 in0.0 mm 0.08 in2.0 mm
09:35 PM 54.6°F12.6°C 51.7°F10.9°C 90% Calm Calm -- 30.09 in1019.0 mb 0.00 in0.0 mm 0.00 in0.0 mm 0.08 in2.0 mm
09:40 PM 54.6°F12.6°C 51.7°F10.9°C 90% Calm Calm -- 30.09 in1019.0 mb 0.00 in0.0 mm 0.00 in0.0 mm 0.08 in2.0 mm
09:45 PM 54.4°F12.4°C 51.5°F10.8°C 90% Calm Calm -- 30.09 in1019.0 mb 0.00 in0.0 mm 0.00 in0.0 mm 0.08 in2.0 mm
09:50 PM 54.4°F12.4°C 51.5°F10.8°C 90% 0.3 mph NE0.5 kmh NE 1.5 mph2.4 kmh 30.09 in1019.0 mb 0.00 in0.0 mm 0.00 in0.0 mm 0.08 in2.0 mm
09:55 PM 54.6°F12.6°C 51.7°F10.9°C 90% 0.8 mph ENE1.3 kmh ENE 3.3 mph5.3 kmh 30.09 in1019.0 mb 0.00 in0.0 mm 0.00 in0.0 mm 0.08 in2.0 mm
10:00 PM 54.6°F12.6°C 51.7°F10.9°C 90% 2.0 mph NE3.2 kmh NE 4.5 mph7.2 kmh 30.09 in1019.0 mb 0.00 in0.0 mm 0.00 in0.0 mm 0.08 in2.0 mm
10:05 PM 54.6°F12.6°C 51.7°F10.9°C 90% 1.7 mph ENE2.7 kmh ENE 4.5 mph7.2 kmh 30.09 in1019.0 mb 0.00 in0.0 mm 0.00 in0.0 mm 0.08 in2.0 mm
10:10 PM 54.6°F12.6°C 51.7°F10.9°C 90% 0.5 mph E0.8 kmh E 2.7 mph4.3 kmh 30.09 in1019.0 mb 0.00 in0.0 mm 0.00 in0.0 mm 0.08 in2.0 mm
10:15 PM 54.8°F12.7°C 51.9°F11.1°C 90% 0.7 mph E1.1 kmh E 2.7 mph4.3 kmh 30.09 in1019.0 mb 0.00 in0.0 mm 0.00 in0.0 mm 0.08 in2.0 mm
10:20 PM 54.8°F12.7°C 51.9°F11.1°C 90% 0.5 mph E0.8 kmh E 2.7 mph4.3 kmh 30.09 in1019.0 mb 0.00 in0.0 mm 0.00 in0.0 mm 0.08 in2.0 mm
10:25 PM 54.8°F12.7°C 52.2°F11.2°C 91% 0.4 mph SE0.6 kmh SE 2.7 mph4.3 kmh 30.09 in1019.0 mb 0.00 in0.0 mm 0.00 in0.0 mm 0.08 in2.0 mm
10:30 PM 54.8°F12.7°C 52.2°F11.2°C 91% 0.4 mph SE0.6 kmh SE 2.7 mph4.3 kmh 30.09 in1019.0 mb 0.00 in0.0 mm 0.00 in0.0 mm 0.08 in2.0 mm
10:35 PM 54.8°F12.7°C 52.2°F11.2°C 91% Calm Calm -- 30.09 in1019.0 mb 0.00 in0.0 mm 0.00 in0.0 mm 0.08 in2.0 mm
10:40 PM 54.8°F12.7°C 52.2°F11.2°C 91% Calm Calm -- 30.09 in1019.0 mb 0.00 in0.0 mm 0.00 in0.0 mm 0.08 in2.0 mm
10:45 PM 54.8°F12.7°C 52.2°F11.2°C 91% Calm Calm -- 30.09 in1019.0 mb 0.00 in0.0 mm 0.00 in0.0 mm 0.08 in2.0 mm
10:50 PM 54.8°F12.7°C 52.2°F11.2°C 91% Calm Calm -- 30.09 in1019.0 mb 0.00 in0.0 mm 0.00 in0.0 mm 0.08 in2.0 mm
10:55 PM 54.8°F12.7°C 52.2°F11.2°C 91% Calm Calm -- 30.09 in1019.0 mb 0.00 in0.0 mm 0.00 in0.0 mm 0.08 in2.0 mm
11:00 PM 54.8°F12.7°C 52.2°F11.2°C 91% Calm Calm -- 30.09 in1019.0 mb 0.00 in0.0 mm 0.00 in0.0 mm 0.08 in2.0 mm
11:05 PM 54.8°F12.7°C 52.2°F11.2°C 91% Calm Calm -- 30.09 in1019.0 mb 0.00 in0.0 mm 0.00 in0.0 mm 0.08 in2.0 mm
11:10 PM 54.8°F12.7°C 52.2°F11.2°C 91% Calm Calm -- 30.09 in1019.0 mb 0.00 in0.0 mm 0.00 in0.0 mm 0.08 in2.0 mm
11:15 PM 54.8°F12.7°C 52.2°F11.2°C 91% Calm Calm -- 30.09 in1019.0 mb 0.00 in0.0 mm 0.00 in0.0 mm 0.08 in2.0 mm
11:20 PM 54.8°F12.7°C 52.2°F11.2°C 91% 0.1 mph SE0.2 kmh SE 1.2 mph1.9 kmh 30.09 in1019.0 mb 0.00 in0.0 mm 0.00 in0.0 mm 0.08 in2.0 mm
11:25 PM 54.8°F12.7°C 52.2°F11.2°C 91% 0.3 mph SSW0.5 kmh SSW 1.8 mph2.9 kmh 30.09 in1019.0 mb 0.00 in0.0 mm 0.00 in0.0 mm 0.08 in2.0 mm
11:30 PM 54.8°F12.7°C 52.2°F11.2°C 91% 0.6 mph S1.0 kmh S 1.8 mph2.9 kmh 30.09 in1019.0 mb 0.00 in0.0 mm 0.00 in0.0 mm 0.08 in2.0 mm
11:35 PM 54.8°F12.7°C 52.2°F11.2°C 91% 0.3 mph S0.5 kmh S 1.8 mph2.9 kmh 30.09 in1019.0 mb 0.00 in0.0 mm 0.00 in0.0 mm 0.08 in2.0 mm
11:40 PM 54.8°F12.7°C 52.5°F11.4°C 92% 0.1 mph S0.2 kmh S 1.8 mph2.9 kmh 30.09 in1019.0 mb 0.00 in0.0 mm 0.00 in0.0 mm 0.08 in2.0 mm
11:45 PM 54.8°F12.7°C 52.5°F11.4°C 92% 0.3 mph WSW0.5 kmh WSW 1.2 mph1.9 kmh 30.09 in1019.0 mb 0.00 in0.0 mm 0.00 in0.0 mm 0.08 in2.0 mm
11:50 PM 54.8°F12.7°C 52.5°F11.4°C 92% 0.3 mph WSW0.5 kmh WSW 1.2 mph1.9 kmh 30.09 in1019.0 mb 0.00 in0.0 mm 0.00 in0.0 mm 0.08 in2.0 mm
11:55 PM 54.8°F12.7°C 52.5°F11.4°C 92% 0.1 mph NW0.2 kmh NW 1.2 mph1.9 kmh 30.09 in1019.0 mb 0.00 in0.0 mm 0.00 in0.0 mm 0.08 in2.0 mm